Friday, October 24, 2014
23:56 UTC
  |  Log In   |  Register Free
Airport Search:

Jackson-Medgar Wiley Evers International Airport
(KJAN)

FAA data valid effective September 18, 2014 - November 13, 2014 (unless otherwise noted).

 
 
 
 
 
 
 
 
 
 
 
 
 
 

Current Aviation Weather for Jackson-Medgar Wiley Evers International Airport (KJAN)

The most recent METAR observation for KJAN was updated at: 2312
METAR Summary (Translated METAR)
KJAN
242254Z 31004KT 10SM FEW250 21/08 A3008 RMK AO2 SLP183 T02110078
KHKS
242253Z 31005KT 10SM CLR 21/07 A3009 RMK AO2 SLP182 T02060072
(7.6 nm NW from KJAN)
KJVW
242255Z AUTO 00000KT 10SM CLR 18/15 A3009 RMK AO2
(16.9 nm SW from KJAN)
TAF Summary (Translated TAF)
KJAN
241720Z 2418/2518 35006KT P6SM SKC FM250800 00000KT 4SM BR SKC FM251400 34006KT P6SM SKC
KHKS
(7.6 nm NW from KJAN)
241720Z 2418/2518 35006KT P6SM SKC
  Airport Weather Conditions for KJAN

 Current Weather at JAN
70° F
A Few Clouds
Northwest winds at 4.6 mph
JAN NOAA Radar

Pressure: 30.08 in
Humidity: 42%
Wind: Northwest at 4.6 MPH (4 KT)
Dew Point: 46.0°F
Visibility: 10.00 mi


Airport Weather Forecast for KJAN

Translated METAR and TAF for KJAN
Translated METAR for KJAN (2351 UTC 24 October 2014)
found at http://aviationweather.gov/adds/metars/
 
METAR text: KJAN 242254Z 31004KT 10SM FEW250 21/08 A3008 RMK AO2 SLP183 T02110078
Conditions at: KJAN (JACKSON , MS, US) observed 2254 UTC 24 October 2014
Temperature: 21.1°C (70°F)
Dewpoint: 7.8°C (46°F) [RH = 42%]
Pressure (altimeter): 30.08 inches Hg (1018.7 mb)
[Sea-level pressure: 1018.3 mb]
Winds: from the NW (310 degrees) at 5 MPH (4 knots; 2.1 m/s)
Visibility: 10 or more miles (16+ km)
Ceiling: at least 12,000 feet AGL
Clouds: few clouds at 25000 feet AGL
Weather: no significant weather observed at this time
Translated TAF for KJAN
Forecast for: KJAN (JACKSON , MS, US)
TAF Text: KJAN 242332Z 2500/2524 VRB03KT P6SM SCT250
Forecast period: 0000 to 1100 UTC 25 October 2014
Forecast type: FROM: standard forecast or significant change
Winds: variable direction winds at 3 MPH (3 knots; 1.6 m/s)
Visibility: 6 or more miles (10+ km)
Clouds: scattered clouds at 25000 feet AGL
Weather: no significant weather forecast for this period
TAF Text: FM251100 VRB03KT 6SM BR SCT250
Forecast period: 1100 to 1400 UTC 25 October 2014
Forecast type: FROM: standard forecast or significant change
Winds: variable direction winds at 3 MPH (3 knots; 1.6 m/s)
Visibility: 6 miles (10 km)
Clouds: scattered clouds at 25000 feet AGL
Weather: BR  (mist)
TAF Text: FM251400 30005KT P6SM SKC
Forecast period: 1400 UTC 25 October 2014 to 0000 UTC 26 October 2014
Forecast type: FROM: standard forecast or significant change
Winds: from the WNW (300 degrees) at 6 MPH (5 knots; 2.6 m/s)
Visibility: 6 or more miles (10+ km)
Clouds: clear skies
Weather: no significant weather forecast for this period

Find All Airport Services Find A Hotel Find A Rental Car Find A Golf Course Find A Restaurant $100 Hamburger



FBO's on the Field
FBO Company Facility Photos Services Transportation Aviation Fuel Prices: Prices include tax
Catering Weather Repair Courtesy Rental Type 100LL JetA JetA+ MOGAS 8087
 
Atlantic Aviation

This FBO has not yet been rated
FS:Chevron
Last Updated: Oct-24
Login to update fuel prices
SS:
Contact Atlantic AviationMore FBO Information
 
Add another FBO Facility Photos Catering Weather Repair Courtesy Rental Type 100LL JetA JetA+ MOGAS 8087
Services Transportation Aviation Fuel Prices: Prices include tax


model-print
model-print
model-print
model-print